Terminal Aerodrome Forecast
Issued by NWS Duluth, MN

Home | Current Version | Previous Version | Text Only | Print | Product List | Glossary On
Versions: 1 2 3 4 5 6 7 8 9 10 11 12 13 14 15 16 17 18 19 20 21 22 23
000
FTUS43 KDLH 271730
TAFDLH
TAF
KDLH 271730Z 2718/2818 26012G18KT P6SM FEW050
     FM272300 24008KT P6SM BKN140
     FM280400 23005KT P6SM SCT200
     FM280700 24005KT P6SM BKN070
     FM281300 26005KT P6SM BKN030=

USA.gov is the U.S. government's official web portal to all federal, state and local government web resources and services.